createdAt,value
2023-02-08T00:00:27.853Z,98253.41
2023-02-08T00:03:19.158Z,98166.44
2023-02-08T00:05:47.010Z,98242.44
2023-02-08T00:08:14.854Z,98225.84
2023-02-08T00:10:45.875Z,98184.56
2023-02-08T00:13:28.613Z,98253.06
2023-02-08T00:16:03.171Z,98241.81
2023-02-08T00:18:34.193Z,98230.19
2023-02-08T00:21:02.004Z,98225.69
2023-02-08T00:23:33.784Z,98246.09
2023-02-08T00:26:04.195Z,98242.72
2023-02-08T00:28:36.020Z,98235.34
2023-02-08T00:31:06.653Z,98163.34
2023-02-08T00:33:34.934Z,98221.72
2023-02-08T00:36:10.179Z,98230.66
2023-02-08T00:38:47.438Z,98225.50
2023-02-08T00:41:17.839Z,98176.00
2023-02-08T00:43:48.647Z,98188.00
2023-02-08T00:46:17.954Z,98200.44
2023-02-08T00:48:51.577Z,98150.53
2023-02-08T00:51:23.411Z,98223.97
2023-02-08T00:53:51.257Z,98223.00
2023-02-08T00:56:19.087Z,98225.91
2023-02-08T00:58:49.039Z,98220.06
2023-02-08T01:01:18.349Z,98207.31
2023-02-08T01:03:52.237Z,98224.25
2023-02-08T01:06:21.978Z,98190.94
2023-02-08T01:08:50.294Z,98234.66
2023-02-08T01:11:22.270Z,98225.19
2023-02-08T01:13:50.534Z,98243.78
2023-02-08T01:16:21.214Z,98220.91
2023-02-08T01:18:51.031Z,98238.72
2023-02-08T01:21:25.768Z,98182.78
2023-02-08T01:23:56.990Z,98213.75
2023-02-08T01:26:26.194Z,98228.09
2023-02-08T01:28:55.540Z,98217.78
2023-02-08T01:31:27.983Z,98176.50
2023-02-08T01:33:56.440Z,98214.97
2023-02-08T01:36:30.200Z,97999.31
2023-02-08T01:38:58.368Z,98213.03
2023-02-08T01:41:28.089Z,98217.34
2023-02-08T01:44:11.023Z,98190.47
2023-02-08T01:46:48.032Z,98234.06
2023-02-08T01:49:19.643Z,98206.59
2023-02-08T01:51:51.194Z,98200.06
2023-02-08T01:54:21.718Z,98202.94
2023-02-08T01:56:50.985Z,98200.56
2023-02-08T01:59:26.456Z,98204.00
2023-02-08T02:01:58.096Z,98202.31
2023-02-08T02:04:26.863Z,98180.41
2023-02-08T02:07:00.337Z,98199.44
2023-02-08T02:09:55.662Z,98125.63
2023-02-08T02:12:23.909Z,98188.69
2023-02-08T02:15:07.145Z,98157.94
2023-02-08T02:17:39.522Z,98203.75
2023-02-08T02:20:12.050Z,98180.47
2023-02-08T02:23:27.846Z,98190.97
2023-02-08T02:26:32.478Z,98170.03
2023-02-08T02:29:29.735Z,98166.44
2023-02-08T02:32:11.405Z,98164.19
2023-02-08T02:34:51.667Z,98151.31
2023-02-08T02:37:32.408Z,98148.97
2023-02-08T02:40:07.309Z,98163.53
2023-02-08T02:43:07.208Z,98166.09
2023-02-08T02:45:38.005Z,98127.47
2023-02-08T02:48:13.257Z,98140.91
2023-02-08T02:50:45.930Z,98078.09
2023-02-08T02:53:19.688Z,98177.03
2023-02-08T02:55:55.537Z,98174.44
2023-02-08T02:58:26.982Z,98163.53
2023-02-08T03:01:00.951Z,98176.16
2023-02-08T03:03:36.242Z,98160.88
2023-02-08T03:06:10.959Z,98174.50
2023-02-08T03:09:06.122Z,98077.69
2023-02-08T03:11:36.722Z,98173.31
2023-02-08T03:14:18.114Z,98175.13
2023-02-08T03:17:01.785Z,98169.41
2023-02-08T03:19:36.981Z,98160.00
2023-02-08T03:22:13.449Z,98168.97
2023-02-08T03:24:48.111Z,98159.69
2023-02-08T03:27:23.637Z,98158.28
2023-02-08T03:30:08.007Z,98093.53
2023-02-08T03:32:42.972Z,98134.59
2023-02-08T03:35:18.260Z,98106.69
2023-02-08T03:37:50.824Z,98115.06
2023-02-08T03:40:26.924Z,98175.56
2023-02-08T03:43:04.708Z,98173.13
2023-02-08T03:45:34.863Z,98172.41
2023-02-08T03:48:06.065Z,98178.59
2023-02-08T03:50:39.145Z,98173.06
2023-02-08T03:53:08.441Z,98181.78
2023-02-08T03:55:39.126Z,98168.72
2023-02-08T03:58:15.019Z,98169.56
2023-02-08T04:00:45.704Z,98219.84
2023-02-08T04:03:21.518Z,98135.91
2023-02-08T04:06:07.274Z,98173.41
2023-02-08T04:08:38.658Z,98153.88
2023-02-08T04:11:08.938Z,98169.84
2023-02-08T04:13:39.527Z,98171.38
2023-02-08T04:16:11.290Z,98145.38
2023-02-08T04:18:44.468Z,98169.53
2023-02-08T04:21:13.924Z,98170.66
2023-02-08T04:23:41.733Z,98166.81
2023-02-08T04:26:12.473Z,98174.16
2023-02-08T04:28:40.672Z,98170.88
2023-02-08T04:31:10.369Z,98120.22
2023-02-08T04:33:38.333Z,98165.88
2023-02-08T04:36:08.942Z,98149.00
2023-02-08T04:38:38.238Z,98177.06
2023-02-08T04:41:09.125Z,98163.06
2023-02-08T04:43:39.328Z,98166.38
2023-02-08T04:46:09.532Z,98146.31
2023-02-08T04:48:38.726Z,98161.84
2023-02-08T04:51:06.905Z,98144.50
2023-02-08T04:53:35.709Z,98157.25
2023-02-08T04:56:15.693Z,98157.13
2023-02-08T04:58:45.600Z,98140.38
2023-02-08T05:01:17.470Z,98034.28
2023-02-08T05:03:45.478Z,98122.78
2023-02-08T05:06:20.364Z,98137.78
2023-02-08T05:08:48.206Z,98080.63
2023-02-08T05:11:24.909Z,98134.50
2023-02-08T05:13:53.723Z,98109.28
2023-02-08T05:16:26.517Z,98131.38
2023-02-08T05:18:54.710Z,98094.56
2023-02-08T05:21:24.650Z,98131.34
2023-02-08T05:23:54.673Z,98134.56
2023-02-08T05:26:23.967Z,98103.56
2023-02-08T05:28:52.154Z,98141.91
2023-02-08T05:31:22.037Z,98127.00
2023-02-08T05:33:50.227Z,98151.41
2023-02-08T05:36:18.517Z,97987.16
2023-02-08T05:38:46.575Z,98122.69
2023-02-08T05:41:14.413Z,98084.34
2023-02-08T05:43:47.647Z,98124.56
2023-02-08T05:46:15.653Z,98132.72
2023-02-08T05:48:46.326Z,98138.63
2023-02-08T05:51:14.290Z,98141.31
2023-02-08T05:53:43.546Z,98140.72
2023-02-08T05:56:15.103Z,98049.81
2023-02-08T05:58:45.488Z,98178.63
2023-02-08T06:01:14.668Z,98154.69
2023-02-08T06:03:43.830Z,98154.47
2023-02-08T06:06:14.424Z,98148.19
2023-02-08T06:08:42.418Z,98080.41
2023-02-08T06:11:13.318Z,98147.22
2023-02-08T06:13:46.106Z,98151.91
2023-02-08T06:16:14.506Z,98159.66
2023-02-08T06:18:42.426Z,98109.69
2023-02-08T06:21:10.660Z,98117.84
2023-02-08T06:23:38.544Z,98136.63
2023-02-08T06:26:06.748Z,98070.84
2023-02-08T06:28:34.555Z,98151.31
2023-02-08T06:31:05.618Z,98138.25
2023-02-08T06:33:33.601Z,98165.25
2023-02-08T06:36:04.003Z,98163.59
2023-02-08T06:38:31.792Z,98160.84
2023-02-08T06:41:01.799Z,98162.06
2023-02-08T06:43:32.780Z,98163.72
2023-02-08T06:46:04.989Z,98066.97
2023-02-08T06:48:36.081Z,98171.03
2023-02-08T06:51:04.105Z,98177.50
2023-02-08T06:53:34.328Z,98181.69
2023-02-08T06:56:02.198Z,98177.06
2023-02-08T06:58:30.216Z,98174.50
2023-02-08T07:01:01.941Z,98169.91
2023-02-08T07:03:29.761Z,98177.13
2023-02-08T07:06:05.229Z,98175.44
2023-02-08T07:08:36.288Z,98172.38
2023-02-08T07:11:10.742Z,98145.16
2023-02-08T07:13:41.365Z,98177.72
2023-02-08T07:16:11.013Z,98132.03
2023-02-08T07:18:44.960Z,98174.81
2023-02-08T07:21:14.233Z,98179.13
2023-02-08T07:23:43.016Z,98158.88
2023-02-08T07:26:17.538Z,98184.31
2023-02-08T07:28:48.028Z,98182.81
2023-02-08T07:31:18.096Z,98185.69
2023-02-08T07:33:50.737Z,98176.19
2023-02-08T07:36:20.153Z,98192.59
2023-02-08T07:38:51.184Z,98180.59
2023-02-08T07:41:21.688Z,98181.78
2023-02-08T07:43:52.984Z,98184.50
2023-02-08T07:46:24.773Z,98175.00
2023-02-08T07:48:53.535Z,98181.00
2023-02-08T07:51:25.352Z,98186.63
2023-02-08T07:53:55.368Z,98162.06
2023-02-08T07:56:32.829Z,98186.16
2023-02-08T07:59:00.769Z,98179.69
2023-02-08T08:01:29.600Z,98166.91
2023-02-08T08:04:02.225Z,98176.78
2023-02-08T08:06:31.827Z,98158.34
2023-02-08T08:09:05.714Z,98229.72
2023-02-08T08:11:33.655Z,98173.44
2023-02-08T08:14:01.550Z,98171.13
2023-02-08T08:16:29.854Z,98170.28
2023-02-08T08:18:59.444Z,98164.31
2023-02-08T08:21:31.749Z,98171.50
2023-02-08T08:23:59.645Z,98175.03
2023-02-08T08:26:35.317Z,98176.31
2023-02-08T08:29:03.380Z,98149.94
2023-02-08T08:31:31.990Z,98176.34
2023-02-08T08:34:00.372Z,98177.66
2023-02-08T08:36:31.109Z,98181.47
2023-02-08T08:39:02.862Z,98179.72
2023-02-08T08:41:35.937Z,98175.31
2023-02-08T08:44:06.925Z,98177.88
2023-02-08T08:46:35.133Z,98116.66
2023-02-08T08:49:07.756Z,98069.03
2023-02-08T08:51:36.311Z,98169.13
2023-02-08T08:54:16.617Z,98175.56
2023-02-08T08:56:47.121Z,98166.59
2023-02-08T08:59:15.384Z,98131.81
2023-02-08T09:01:43.345Z,97836.53
2023-02-08T09:04:11.904Z,98156.25
2023-02-08T09:06:40.028Z,98154.47
2023-02-08T09:09:18.647Z,98156.66
2023-02-08T09:11:46.689Z,98158.22
2023-02-08T09:14:17.784Z,98084.09
2023-02-08T09:16:51.057Z,98155.78
2023-02-08T09:19:19.920Z,98160.47
2023-02-08T09:21:47.896Z,98157.59
2023-02-08T09:24:22.984Z,98140.78
2023-02-08T09:26:55.771Z,98145.91
2023-02-08T09:29:30.335Z,98147.41
2023-02-08T09:31:58.632Z,98148.88
2023-02-08T09:34:28.428Z,98152.81
2023-02-08T09:36:56.367Z,98152.38
2023-02-08T09:39:26.907Z,98150.13
2023-02-08T09:42:10.705Z,98151.69
2023-02-08T09:44:46.914Z,98131.09
2023-02-08T09:47:20.060Z,98148.31
2023-02-08T09:49:57.493Z,98150.13
2023-02-08T09:52:33.458Z,98142.34
2023-02-08T09:55:05.997Z,98147.53
2023-02-08T09:57:36.285Z,98147.59
2023-02-08T10:00:08.643Z,98148.66
2023-02-08T10:02:36.606Z,98144.69
2023-02-08T10:05:11.012Z,98099.56
2023-02-08T10:07:43.849Z,98151.25
2023-02-08T10:10:19.752Z,98138.19
2023-02-08T10:12:57.579Z,98136.56
2023-02-08T10:15:34.856Z,98147.47
2023-02-08T10:18:44.077Z,98146.19
2023-02-08T10:21:25.370Z,98116.84
2023-02-08T10:24:23.013Z,98134.63
2023-02-08T10:26:57.097Z,98124.34
2023-02-08T10:29:53.263Z,98121.09
2023-02-08T10:32:29.250Z,98123.19
2023-02-08T10:35:04.614Z,98089.59
2023-02-08T10:37:36.738Z,98079.16
2023-02-08T10:40:18.283Z,98103.41
2023-02-08T10:42:50.524Z,97815.88
2023-02-08T10:45:24.933Z,98110.34
2023-02-08T10:47:55.641Z,98112.84
2023-02-08T10:50:30.075Z,98100.13
2023-02-08T10:52:58.212Z,98087.13
2023-02-08T10:55:36.480Z,98102.00
2023-02-08T10:58:10.107Z,98098.47
2023-02-08T11:00:41.317Z,98104.22
2023-02-08T11:03:16.766Z,98094.47
2023-02-08T11:05:45.753Z,98083.66
2023-02-08T11:08:15.979Z,98099.41
2023-02-08T11:10:46.938Z,98092.59
2023-02-08T11:13:22.231Z,98088.81
2023-02-08T11:15:53.956Z,98057.13
2023-02-08T11:18:28.010Z,98047.03
2023-02-08T11:21:01.673Z,98082.94
2023-02-08T11:23:34.388Z,98074.28
2023-02-08T11:26:18.227Z,98070.81
2023-02-08T11:29:13.356Z,98059.16
2023-02-08T11:31:50.555Z,98056.09
2023-02-08T11:34:33.072Z,98016.59
2023-02-08T11:37:10.591Z,98052.66
2023-02-08T11:39:42.368Z,98045.84
2023-02-08T11:42:21.795Z,98035.75
2023-02-08T11:44:55.054Z,98034.41
2023-02-08T11:47:27.732Z,98032.09
2023-02-08T11:49:57.901Z,98028.81
2023-02-08T11:52:28.044Z,97988.72
2023-02-08T11:54:57.870Z,98027.72
2023-02-08T11:57:27.927Z,98014.63
2023-02-08T12:00:19.309Z,98012.63
2023-02-08T12:02:47.567Z,98014.78
2023-02-08T12:05:20.188Z,98013.09
2023-02-08T12:08:00.975Z,98017.50
2023-02-08T12:10:49.027Z,97995.16
2023-02-08T12:13:35.123Z,98013.81
2023-02-08T12:16:13.604Z,98006.28
2023-02-08T12:18:53.233Z,98010.81
2023-02-08T12:21:23.834Z,98002.22
2023-02-08T12:23:56.051Z,97995.66
2023-02-08T12:26:33.976Z,97985.69
2023-02-08T12:29:17.706Z,97981.19
2023-02-08T12:32:18.421Z,97981.13
2023-02-08T12:34:57.002Z,97978.84
2023-02-08T12:37:54.002Z,97964.44
2023-02-08T12:40:49.949Z,97967.91
2023-02-08T12:43:27.134Z,97868.44
2023-02-08T12:46:12.768Z,97957.66
2023-02-08T12:49:06.671Z,97952.59
2023-02-08T12:51:44.206Z,97898.63
2023-02-08T12:54:16.096Z,97940.69
2023-02-08T12:57:00.373Z,97940.53
2023-02-08T12:59:37.976Z,97936.28
2023-02-08T13:02:14.929Z,97932.22
2023-02-08T13:04:47.327Z,97921.50
2023-02-08T13:07:19.729Z,97904.50
2023-02-08T13:09:51.977Z,97909.97
2023-02-08T13:12:25.405Z,97912.81
2023-02-08T13:14:57.321Z,97904.28
2023-02-08T13:17:28.373Z,97872.22
2023-02-08T13:20:01.388Z,97879.78
2023-02-08T13:22:33.526Z,97897.22
2023-02-08T13:25:07.871Z,97876.97
2023-02-08T13:27:36.367Z,97883.84
2023-02-08T13:30:08.487Z,97867.06
2023-02-08T13:32:44.034Z,97885.44
2023-02-08T13:35:21.485Z,97877.97
2023-02-08T13:37:51.944Z,97850.06
2023-02-08T13:40:21.914Z,97878.19
2023-02-08T13:42:51.704Z,97881.00
2023-02-08T13:45:31.164Z,97881.81
2023-02-08T13:48:01.200Z,97846.63
2023-02-08T13:50:59.094Z,97486.44
2023-02-08T13:54:05.956Z,97868.78
2023-02-08T13:56:45.435Z,97868.47
2023-02-08T13:59:29.077Z,97838.81
2023-02-08T14:02:34.318Z,97871.19
2023-02-08T14:05:45.346Z,97874.06
2023-02-08T14:08:22.686Z,97873.31
2023-02-08T14:11:04.944Z,97868.84
2023-02-08T14:13:34.134Z,97872.53
2023-02-08T14:16:31.308Z,97869.88
2023-02-08T14:19:02.930Z,97858.31
2023-02-08T14:21:35.934Z,97879.00
2023-02-08T14:24:08.393Z,97876.56
2023-02-08T14:26:39.282Z,97879.41
2023-02-08T14:29:08.067Z,97880.63
2023-02-08T14:31:45.343Z,97852.59
2023-02-08T14:34:34.361Z,97880.31
2023-02-08T14:37:10.560Z,97871.91
2023-02-08T14:39:40.289Z,97817.28
2023-02-08T14:42:14.336Z,97871.81
2023-02-08T14:44:57.795Z,97872.25
2023-02-08T14:48:05.420Z,97875.69
2023-02-08T14:50:40.361Z,97868.09
2023-02-08T14:53:20.178Z,97872.03
2023-02-08T14:55:56.971Z,97867.16
2023-02-08T14:58:30.950Z,97862.00
2023-02-08T15:01:02.077Z,97885.69
2023-02-08T15:03:32.674Z,97880.91
2023-02-08T15:06:33.926Z,97873.03
2023-02-08T15:09:05.624Z,97823.53
2023-02-08T15:11:35.975Z,97872.97
2023-02-08T15:14:05.981Z,97865.28
2023-02-08T15:16:36.210Z,97832.38
2023-02-08T15:19:11.148Z,97872.94
2023-02-08T15:21:41.015Z,97876.59
2023-02-08T15:24:16.185Z,97886.75
2023-02-08T15:26:50.348Z,97874.88
2023-02-08T15:29:30.084Z,97868.81
2023-02-08T15:32:07.916Z,97874.06
2023-02-08T15:34:36.066Z,97824.28
2023-02-08T15:37:07.081Z,97878.06
2023-02-08T15:39:38.563Z,97823.13
2023-02-08T15:42:17.297Z,97887.25
2023-02-08T15:44:45.602Z,97878.19
2023-02-08T15:47:17.515Z,97888.38
2023-02-08T15:49:48.980Z,97827.81
2023-02-08T15:52:18.828Z,97870.66
2023-02-08T15:54:47.153Z,97864.88
2023-02-08T15:57:25.732Z,97881.94
2023-02-08T15:59:53.957Z,97879.78
2023-02-08T16:02:28.970Z,97840.75
2023-02-08T16:04:57.126Z,97886.97
2023-02-08T16:07:31.153Z,97886.50
2023-02-08T16:09:59.391Z,97864.75
2023-02-08T16:12:29.318Z,97862.25
2023-02-08T16:14:57.426Z,97878.75
2023-02-08T16:17:38.427Z,97884.88
2023-02-08T16:20:30.091Z,97893.44
2023-02-08T16:23:00.575Z,97894.34
2023-02-08T16:25:38.522Z,97893.00
2023-02-08T16:28:25.995Z,97901.03
2023-02-08T16:30:54.252Z,97875.41
2023-02-08T16:33:22.199Z,97894.72
2023-02-08T16:35:51.413Z,97896.53
2023-02-08T16:38:24.016Z,97904.00
2023-02-08T16:40:53.958Z,97907.31
2023-02-08T16:43:27.076Z,97899.19
2023-02-08T16:46:21.149Z,97845.94
2023-02-08T16:48:55.864Z,97903.63
2023-02-08T16:51:26.308Z,97897.97
2023-02-08T16:53:58.057Z,97903.91
2023-02-08T16:56:28.961Z,97909.06
2023-02-08T16:58:58.490Z,97900.00
2023-02-08T17:01:28.541Z,97916.44
2023-02-08T17:03:56.652Z,97916.09
2023-02-08T17:06:33.166Z,97930.13
2023-02-08T17:09:04.818Z,97915.41
2023-02-08T17:11:34.329Z,97917.22
2023-02-08T17:14:07.810Z,97895.50
2023-02-08T17:16:36.556Z,97918.13
2023-02-08T17:19:08.544Z,97913.44
2023-02-08T17:21:42.366Z,97919.06
2023-02-08T17:24:12.025Z,97921.03
2023-02-08T17:26:42.174Z,97924.50
2023-02-08T17:29:12.278Z,97915.97
2023-02-08T17:31:44.643Z,97930.97
2023-02-08T17:34:15.295Z,97926.00
2023-02-08T17:36:43.075Z,97936.53
2023-02-08T17:39:17.872Z,97930.41
2023-02-08T17:41:45.674Z,97937.72
2023-02-08T17:44:19.116Z,97920.94
2023-02-08T17:46:48.240Z,97933.47
2023-02-08T17:49:16.316Z,97913.69
2023-02-08T17:51:45.313Z,97930.25
2023-02-08T17:54:14.357Z,97915.44
2023-02-08T17:56:42.165Z,97933.53
2023-02-08T17:59:10.000Z,97935.50
2023-02-08T18:01:41.495Z,97937.25
2023-02-08T18:04:14.232Z,97894.56
2023-02-08T18:06:42.104Z,97940.41
2023-02-08T18:09:09.902Z,97933.16
2023-02-08T18:11:41.392Z,97931.69
2023-02-08T18:14:21.792Z,97931.72
2023-02-08T18:16:54.803Z,97931.31
2023-02-08T18:19:22.842Z,97930.19
2023-02-08T18:21:50.924Z,97933.72
2023-02-08T18:24:18.909Z,97921.66
2023-02-08T18:26:49.539Z,97920.97
2023-02-08T18:29:17.284Z,97918.84
2023-02-08T18:31:45.202Z,97924.53
2023-02-08T18:34:16.338Z,97904.22
2023-02-08T18:36:44.286Z,97926.09
2023-02-08T18:39:14.252Z,97932.66
2023-02-08T18:41:44.730Z,97916.16
2023-02-08T18:44:14.926Z,97890.63
2023-02-08T18:46:47.701Z,97925.47
2023-02-08T18:49:17.062Z,97926.63
2023-02-08T18:51:46.940Z,97932.19
2023-02-08T18:54:19.296Z,97920.59
2023-02-08T18:56:47.215Z,97918.13
2023-02-08T18:59:18.895Z,97921.72
2023-02-08T19:01:49.516Z,97928.81
2023-02-08T19:04:21.549Z,97843.97
2023-02-08T19:06:49.471Z,97925.81
2023-02-08T19:09:17.424Z,97923.09
2023-02-08T19:11:45.628Z,97938.50
2023-02-08T19:14:15.495Z,97928.22
2023-02-08T19:16:44.080Z,97932.97
2023-02-08T19:19:13.126Z,97930.28
2023-02-08T19:21:42.768Z,97908.94
2023-02-08T19:24:15.042Z,97920.13
2023-02-08T19:26:43.909Z,97924.09
2023-02-08T19:29:14.000Z,97910.28
2023-02-08T19:31:42.470Z,97919.84
2023-02-08T19:34:14.787Z,97890.97
2023-02-08T19:36:49.282Z,97930.09
2023-02-08T19:39:19.062Z,97928.09
2023-02-08T19:41:47.301Z,97925.91
2023-02-08T19:44:17.381Z,97912.34
2023-02-08T19:46:50.304Z,97921.03
2023-02-08T19:49:21.806Z,97923.66
2023-02-08T19:51:51.417Z,97924.56
2023-02-08T19:54:20.551Z,97893.13
2023-02-08T19:56:50.388Z,97933.25
2023-02-08T19:59:24.833Z,97932.69
2023-02-08T20:01:59.527Z,97928.78
2023-02-08T20:04:32.505Z,97923.59
2023-02-08T20:07:01.678Z,97919.59
2023-02-08T20:09:29.571Z,97924.53
2023-02-08T20:12:00.465Z,97927.78
2023-02-08T20:14:31.242Z,97914.56
2023-02-08T20:16:59.255Z,97916.19
2023-02-08T20:19:39.331Z,97908.28
2023-02-08T20:22:09.214Z,97913.69
2023-02-08T20:24:44.873Z,97863.84
2023-02-08T20:27:13.930Z,97881.50
2023-02-08T20:29:45.689Z,97907.25
2023-02-08T20:32:13.619Z,97911.84
2023-02-08T20:34:53.932Z,97915.22
2023-02-08T20:37:30.335Z,97908.97
2023-02-08T20:40:03.715Z,97914.88
2023-02-08T20:42:33.691Z,97904.91
2023-02-08T20:45:06.866Z,97903.06
2023-02-08T20:47:45.956Z,97878.97
2023-02-08T20:50:19.117Z,97912.19
2023-02-08T20:52:49.203Z,97870.44
2023-02-08T20:55:20.046Z,97902.25
2023-02-08T20:57:47.970Z,97912.38
2023-02-08T21:00:19.402Z,97908.03
2023-02-08T21:02:52.295Z,97885.25
2023-02-08T21:05:27.491Z,97906.88
2023-02-08T21:07:56.729Z,97901.66
2023-02-08T21:10:24.835Z,97910.56
2023-02-08T21:12:52.662Z,97903.91
2023-02-08T21:15:20.497Z,97903.81
2023-02-08T21:17:50.700Z,97902.00
2023-02-08T21:20:20.684Z,97885.78
2023-02-08T21:22:53.478Z,97898.03
2023-02-08T21:25:27.737Z,97900.38
2023-02-08T21:27:57.807Z,97902.91
2023-02-08T21:30:27.847Z,97905.94
2023-02-08T21:32:55.649Z,97903.81
2023-02-08T21:35:25.651Z,97893.25
2023-02-08T21:37:56.000Z,97884.25
2023-02-08T21:40:26.328Z,97890.78
2023-02-08T21:42:54.184Z,97886.84
2023-02-08T21:45:24.738Z,97891.00
2023-02-08T21:47:52.609Z,97825.41
2023-02-08T21:50:37.944Z,97888.81
2023-02-08T21:53:28.923Z,97883.59
2023-02-08T21:56:04.560Z,97795.63
2023-02-08T21:58:32.452Z,97874.22
2023-02-08T22:01:02.255Z,97831.56
2023-02-08T22:03:34.452Z,97881.00
2023-02-08T22:06:02.281Z,97880.53
2023-02-08T22:08:32.932Z,97881.44
2023-02-08T22:11:08.981Z,97876.22
2023-02-08T22:13:36.863Z,97856.72
2023-02-08T22:16:08.981Z,97861.59
2023-02-08T22:18:37.433Z,97915.75
2023-02-08T22:21:05.984Z,97872.25
2023-02-08T22:23:35.942Z,97876.47
2023-02-08T22:26:09.885Z,97870.66
2023-02-08T22:28:38.278Z,97821.63
2023-02-08T22:31:15.952Z,97831.69
2023-02-08T22:33:44.208Z,97867.19
2023-02-08T22:36:12.928Z,97871.03
2023-02-08T22:38:43.863Z,97870.16
2023-02-08T22:41:16.507Z,97867.84
2023-02-08T22:43:50.255Z,97863.72
2023-02-08T22:46:20.694Z,97867.06
2023-02-08T22:48:51.635Z,97868.72
2023-02-08T22:51:26.734Z,97867.19
2023-02-08T22:53:57.245Z,97843.00
2023-02-08T22:56:34.496Z,97868.06
2023-02-08T22:59:03.455Z,97856.25
2023-02-08T23:01:31.674Z,97622.47
2023-02-08T23:04:01.563Z,97862.47
2023-02-08T23:06:29.435Z,97870.16
2023-02-08T23:08:58.879Z,97863.53
2023-02-08T23:11:32.122Z,97816.53
2023-02-08T23:14:05.055Z,97822.84
2023-02-08T23:16:33.008Z,97752.41
2023-02-08T23:19:01.108Z,97849.75
2023-02-08T23:21:31.936Z,97848.84
2023-02-08T23:24:02.551Z,97846.56
2023-02-08T23:26:40.152Z,97852.19
2023-02-08T23:29:08.351Z,97854.25
2023-02-08T23:31:40.105Z,97851.94
2023-02-08T23:34:08.420Z,97857.63
2023-02-08T23:36:38.639Z,97854.09
2023-02-08T23:39:06.926Z,97851.66
2023-02-08T23:41:35.353Z,97825.00
2023-02-08T23:44:07.630Z,97833.13
2023-02-08T23:46:38.129Z,97846.94
2023-02-08T23:49:08.746Z,97774.16
2023-02-08T23:51:39.466Z,97845.41
2023-02-08T23:54:09.214Z,97845.72
2023-02-08T23:56:37.016Z,97842.63
2023-02-08T23:59:08.259Z,97834.34
